sensor_id;sensor_type;location;lat;lon;timestamp;pressure;altitude;pressure_sealevel;temperature;humidity
9229;BME280;4649;42.644;23.284;2023-05-20T04:15:11;93244.28;;;16.18;82.57
9229;BME280;4649;42.644;23.284;2023-05-20T04:17:39;93349.03;;;17.34;79.95
9229;BME280;4649;42.644;23.284;2023-05-20T04:20:13;93241.22;;;16.78;76.16
9229;BME280;4649;42.644;23.284;2023-05-20T04:22:40;93305.00;;;17.19;75.63
9229;BME280;4649;42.644;23.284;2023-05-20T04:25:07;93423.50;;;18.92;73.31
9229;BME280;4649;42.644;23.284;2023-05-20T04:27:34;93410.00;;;19.69;70.01
9229;BME280;4649;42.644;23.284;2023-05-20T04:30:02;93368.81;;;19.69;66.95
9229;BME280;4649;42.644;23.284;2023-05-20T04:32:30;93412.88;;;21.14;61.88
9229;BME280;4649;42.644;23.284;2023-05-20T04:34:58;93413.94;;;21.71;59.30
9229;BME280;4649;42.644;23.284;2023-05-20T04:37:26;93326.69;;;21.66;56.17
9229;BME280;4649;42.644;23.284;2023-05-20T04:39:53;93315.09;;;21.75;53.99
9229;BME280;4649;42.644;23.284;2023-05-20T04:42:20;93406.78;;;23.00;52.54
9229;BME280;4649;42.644;23.284;2023-05-20T04:44:47;93408.28;;;22.94;53.64
9229;BME280;4649;42.644;23.284;2023-05-20T04:47:14;93339.56;;;22.10;55.67
9229;BME280;4649;42.644;23.284;2023-05-20T04:49:42;93413.25;;;22.64;54.29
9229;BME280;4649;42.644;23.284;2023-05-20T04:52:10;93426.31;;;22.16;56.78
9229;BME280;4649;42.644;23.284;2023-05-20T04:54:38;93418.84;;;22.49;54.88
9229;BME280;4649;42.644;23.284;2023-05-20T04:57:05;93258.72;;;21.68;53.65
9229;BME280;4649;42.644;23.284;2023-05-20T04:59:32;93255.72;;;21.81;52.77
9229;BME280;4649;42.644;23.284;2023-05-20T05:01:59;93355.44;;;22.66;49.27
9229;BME280;4649;42.644;23.284;2023-05-20T05:04:26;93427.38;;;23.07;50.12
9229;BME280;4649;42.644;23.284;2023-05-20T05:06:55;93337.13;;;22.61;50.15
9229;BME280;4649;42.644;23.284;2023-05-20T05:09:22;93403.97;;;22.76;49.81
9229;BME280;4649;42.644;23.284;2023-05-20T05:11:48;93429.25;;;22.97;49.96
9229;BME280;4649;42.644;23.284;2023-05-20T05:14:15;93285.50;;;22.14;48.16
9229;BME280;4649;42.644;23.284;2023-05-20T05:16:43;93253.31;;;22.17;49.06
9229;BME280;4649;42.644;23.284;2023-05-20T05:19:10;93398.53;;;22.29;50.19
9229;BME280;4649;42.644;23.284;2023-05-20T05:21:37;93387.16;;;22.10;51.56
9229;BME280;4649;42.644;23.284;2023-05-20T05:24:11;93415.31;;;22.02;51.92
9229;BME280;4649;42.644;23.284;2023-05-20T05:26:45;93332.09;;;21.19;51.18
9229;BME280;4649;42.644;23.284;2023-05-20T05:29:13;93264.03;;;20.97;55.09
9229;BME280;4649;42.644;23.284;2023-05-20T05:31:40;93392.22;;;21.82;53.36
9229;BME280;4649;42.644;23.284;2023-05-20T05:34:07;93304.72;;;21.43;51.96
9229;BME280;4649;42.644;23.284;2023-05-20T05:36:34;93404.72;;;21.83;52.66
9229;BME280;4649;42.644;23.284;2023-05-20T05:39:02;93368.00;;;21.73;54.18
9229;BME280;4649;42.644;23.284;2023-05-20T05:41:30;93384.84;;;21.92;53.44
9229;BME280;4649;42.644;23.284;2023-05-20T05:43:57;93252.75;;;19.84;53.58
9229;BME280;4649;42.644;23.284;2023-05-20T05:46:24;93362.56;;;20.77;52.47
9229;BME280;4649;42.644;23.284;2023-05-20T05:48:51;93257.63;;;20.43;58.05
9229;BME280;4649;42.644;23.284;2023-05-20T05:51:18;93407.84;;;21.87;56.48
9229;BME280;4649;42.644;23.284;2023-05-20T05:53:45;93297.94;;;21.30;54.96
9229;BME280;4649;42.644;23.284;2023-05-20T05:56:12;93217.31;;;20.23;51.53
9229;BME280;4649;42.644;23.284;2023-05-20T05:58:41;93393.72;;;21.76;61.58
9229;BME280;4649;42.644;23.284;2023-05-20T06:01:08;93376.06;;;21.71;56.82
9229;BME280;4649;42.644;23.284;2023-05-20T06:03:35;93408.63;;;21.65;55.12
9229;BME280;4649;42.644;23.284;2023-05-20T06:06:02;93375.78;;;21.00;56.92
9229;BME280;4649;42.644;23.284;2023-05-20T06:08:29;93384.75;;;21.45;58.18
9229;BME280;4649;42.644;23.284;2023-05-20T06:10:56;93394.06;;;21.80;58.93
9229;BME280;4649;42.644;23.284;2023-05-20T06:13:44;93394.69;;;21.41;57.07
9229;BME280;4649;42.644;23.284;2023-05-20T06:16:12;93351.03;;;20.85;54.32
9229;BME280;4649;42.644;23.284;2023-05-20T06:18:41;93280.59;;;19.88;52.55
9229;BME280;4649;42.644;23.284;2023-05-20T06:21:28;93254.09;;;18.57;52.10
9229;BME280;4649;42.644;23.284;2023-05-20T06:24:02;93301.28;;;19.39;51.71
9229;BME280;4649;42.644;23.284;2023-05-20T06:26:31;93277.16;;;19.45;50.61
9229;BME280;4649;42.644;23.284;2023-05-20T06:32:56;93194.09;;;18.74;59.13
9229;BME280;4649;42.644;23.284;2023-05-20T06:35:28;93209.78;;;19.01;53.27
9229;BME280;4649;42.644;23.284;2023-05-20T06:38:06;93347.84;;;19.52;53.42
9229;BME280;4649;42.644;23.284;2023-05-20T06:40:57;93183.75;;;18.32;53.27
9229;BME280;4649;42.644;23.284;2023-05-20T06:46:20;93177.78;;;18.40;55.85
9229;BME280;4649;42.644;23.284;2023-05-20T06:55:36;93180.91;;;19.57;55.46
9229;BME280;4649;42.644;23.284;2023-05-20T06:58:03;93265.16;;;19.70;49.58
9229;BME280;4649;42.644;23.284;2023-05-20T07:10:44;93343.84;;;20.90;48.84
9229;BME280;4649;42.644;23.284;2023-05-20T07:13:13;93356.66;;;21.40;49.66
9229;BME280;4649;42.644;23.284;2023-05-20T07:15:39;93373.84;;;21.85;48.23
9229;BME280;4649;42.644;23.284;2023-05-20T07:18:06;93380.31;;;21.65;48.23
9229;BME280;4649;42.644;23.284;2023-05-20T07:20:37;93228.50;;;20.47;51.44
9229;BME280;4649;42.644;23.284;2023-05-20T07:23:04;93370.06;;;21.65;48.45
9229;BME280;4649;42.644;23.284;2023-05-20T07:25:31;93354.44;;;21.68;46.73
9229;BME280;4649;42.644;23.284;2023-05-20T07:28:00;93283.47;;;20.40;47.63
9229;BME280;4649;42.644;23.284;2023-05-20T07:30:28;93148.50;;;19.41;48.91
9229;BME280;4649;42.644;23.284;2023-05-20T07:32:55;93349.72;;;21.16;47.42
9229;BME280;4649;42.644;23.284;2023-05-20T07:35:22;93285.09;;;21.25;48.38
9229;BME280;4649;42.644;23.284;2023-05-20T07:37:50;93348.03;;;20.54;48.91
9229;BME280;4649;42.644;23.284;2023-05-20T07:40:17;93382.38;;;21.05;49.88
9229;BME280;4649;42.644;23.284;2023-05-20T07:42:44;93356.31;;;21.50;49.07
9229;BME280;4649;42.644;23.284;2023-05-20T07:45:12;93281.31;;;20.98;46.81
9229;BME280;4649;42.644;23.284;2023-05-20T07:47:39;93279.66;;;20.73;48.53
9229;BME280;4649;42.644;23.284;2023-05-20T07:50:07;93236.91;;;20.19;49.49
9229;BME280;4649;42.644;23.284;2023-05-20T07:52:36;93268.63;;;20.28;49.13
9229;BME280;4649;42.644;23.284;2023-05-20T07:55:04;93200.97;;;20.25;48.48
9229;BME280;4649;42.644;23.284;2023-05-20T07:57:31;93377.97;;;21.24;48.55
9229;BME280;4649;42.644;23.284;2023-05-20T07:59:58;93314.13;;;20.96;49.62
9229;BME280;4649;42.644;23.284;2023-05-20T08:02:26;93304.88;;;21.38;48.90
9229;BME280;4649;42.644;23.284;2023-05-20T08:04:53;93369.63;;;21.76;46.95
9229;BME280;4649;42.644;23.284;2023-05-20T08:07:20;93302.75;;;21.07;48.61
9229;BME280;4649;42.644;23.284;2023-05-20T08:09:46;93366.56;;;21.42;50.10
9229;BME280;4649;42.644;23.284;2023-05-20T08:12:13;93375.59;;;20.98;49.11
9229;BME280;4649;42.644;23.284;2023-05-20T08:14:40;93368.38;;;21.62;51.48
9229;BME280;4649;42.644;23.284;2023-05-20T08:17:07;93357.53;;;22.18;48.43
9229;BME280;4649;42.644;23.284;2023-05-20T08:19:36;93330.41;;;22.47;49.00
9229;BME280;4649;42.644;23.284;2023-05-20T08:22:02;93367.78;;;22.40;46.67
9229;BME280;4649;42.644;23.284;2023-05-20T08:24:30;93286.69;;;21.97;44.05
9229;BME280;4649;42.644;23.284;2023-05-20T08:26:58;93367.16;;;22.10;46.27
9229;BME280;4649;42.644;23.284;2023-05-20T08:29:25;93265.72;;;20.85;48.01
9229;BME280;4649;42.644;23.284;2023-05-20T08:31:51;93368.28;;;22.00;46.82
9229;BME280;4649;42.644;23.284;2023-05-20T08:34:18;93354.84;;;21.27;48.70
9229;BME280;4649;42.644;23.284;2023-05-20T08:36:46;93360.47;;;22.20;51.16
9229;BME280;4649;42.644;23.284;2023-05-20T08:39:13;93299.06;;;21.88;46.56
9229;BME280;4649;42.644;23.284;2023-05-20T08:44:08;93208.34;;;21.36;45.35
9229;BME280;4649;42.644;23.284;2023-05-20T08:46:36;93353.75;;;21.30;48.14
9229;BME280;4649;42.644;23.284;2023-05-20T08:49:03;93321.94;;;22.05;49.13
9229;BME280;4649;42.644;23.284;2023-05-20T08:51:32;93305.84;;;21.95;46.76
9229;BME280;4649;42.644;23.284;2023-05-20T08:54:01;93314.44;;;21.99;45.39
9229;BME280;4649;42.644;23.284;2023-05-20T08:56:28;93289.41;;;21.65;44.99
9229;BME280;4649;42.644;23.284;2023-05-20T08:58:55;93280.00;;;21.75;45.97
9229;BME280;4649;42.644;23.284;2023-05-20T09:01:23;93267.56;;;22.06;45.15
9229;BME280;4649;42.644;23.284;2023-05-20T09:03:50;93264.69;;;21.89;44.34
9229;BME280;4649;42.644;23.284;2023-05-20T09:06:17;93294.59;;;22.64;46.58
9229;BME280;4649;42.644;23.284;2023-05-20T09:08:45;93255.06;;;22.61;46.00
9229;BME280;4649;42.644;23.284;2023-05-20T09:11:13;93336.41;;;23.50;43.32
9229;BME280;4649;42.644;23.284;2023-05-20T09:13:40;93304.09;;;22.94;45.32
9229;BME280;4649;42.644;23.284;2023-05-20T09:16:09;93286.69;;;22.84;47.37
9229;BME280;4649;42.644;23.284;2023-05-20T09:18:37;93335.59;;;23.74;45.34
9229;BME280;4649;42.644;23.284;2023-05-20T09:21:04;93216.31;;;22.93;43.82
9229;BME280;4649;42.644;23.284;2023-05-20T09:23:32;93289.56;;;23.18;43.31
9229;BME280;4649;42.644;23.284;2023-05-20T09:25:59;93251.81;;;22.72;43.20
9229;BME280;4649;42.644;23.284;2023-05-20T09:28:28;93251.34;;;22.66;44.57
9229;BME280;4649;42.644;23.284;2023-05-20T09:30:58;93259.28;;;22.06;44.32
9229;BME280;4649;42.644;23.284;2023-05-20T09:33:29;93334.13;;;22.66;44.34
9229;BME280;4649;42.644;23.284;2023-05-20T09:36:02;93247.41;;;22.20;43.96
9229;BME280;4649;42.644;23.284;2023-05-20T09:38:30;93328.44;;;22.88;44.93
9229;BME280;4649;42.644;23.284;2023-05-20T09:41:02;93293.03;;;23.02;45.86
9229;BME280;4649;42.644;23.284;2023-05-20T09:43:34;93296.38;;;23.34;47.59
9229;BME280;4649;42.644;23.284;2023-05-20T09:46:04;93318.41;;;23.41;45.93
9229;BME280;4649;42.644;23.284;2023-05-20T09:48:34;93320.53;;;23.33;46.69
9229;BME280;4649;42.644;23.284;2023-05-20T09:51:02;93314.09;;;23.14;44.95
9229;BME280;4649;42.644;23.284;2023-05-20T09:53:30;93315.41;;;23.30;45.25
9229;BME280;4649;42.644;23.284;2023-05-20T09:55:57;93308.78;;;23.09;44.75
9229;BME280;4649;42.644;23.284;2023-05-20T09:58:24;93300.03;;;22.95;44.46
9229;BME280;4649;42.644;23.284;2023-05-20T10:00:52;93308.38;;;23.12;44.37
9229;BME280;4649;42.644;23.284;2023-05-20T10:03:21;93242.31;;;21.78;46.01
9229;BME280;4649;42.644;23.284;2023-05-20T10:05:57;93202.16;;;21.67;44.40
9229;BME280;4649;42.644;23.284;2023-05-20T10:08:46;93307.19;;;22.74;46.36
9229;BME280;4649;42.644;23.284;2023-05-20T10:11:27;93271.22;;;22.65;44.82
9229;BME280;4649;42.644;23.284;2023-05-20T10:14:21;93297.78;;;22.77;46.88
9229;BME280;4649;42.644;23.284;2023-05-20T10:17:07;93176.09;;;21.93;45.83
9229;BME280;4649;42.644;23.284;2023-05-20T10:19:36;93132.97;;;21.56;44.45
9229;BME280;4649;42.644;23.284;2023-05-20T10:22:07;93298.63;;;21.99;44.39
9229;BME280;4649;42.644;23.284;2023-05-20T10:24:39;93273.72;;;22.21;47.55
9229;BME280;4649;42.644;23.284;2023-05-20T10:27:08;93281.69;;;22.66;46.10
9229;BME280;4649;42.644;23.284;2023-05-20T10:29:42;93117.59;;;21.45;44.30
9229;BME280;4649;42.644;23.284;2023-05-20T10:32:23;93049.13;;;19.87;47.27
9229;BME280;4649;42.644;23.284;2023-05-20T10:34:58;93177.34;;;20.29;48.59
9229;BME280;4649;42.644;23.284;2023-05-20T10:37:31;93170.78;;;20.18;48.96
9229;BME280;4649;42.644;23.284;2023-05-20T10:40:05;93119.22;;;20.48;47.26
9229;BME280;4649;42.644;23.284;2023-05-20T10:42:32;93275.13;;;21.59;43.87
9229;BME280;4649;42.644;23.284;2023-05-20T10:45:03;93244.13;;;21.36;45.17
9229;BME280;4649;42.644;23.284;2023-05-20T10:47:32;93145.59;;;20.66;43.34
9229;BME280;4649;42.644;23.284;2023-05-20T10:50:00;93246.84;;;21.51;43.85
9229;BME280;4649;42.644;23.284;2023-05-20T10:52:32;93087.41;;;19.93;46.50
9229;BME280;4649;42.644;23.284;2023-05-20T10:55:00;93254.34;;;21.65;44.46
9229;BME280;4649;42.644;23.284;2023-05-20T10:57:29;93100.03;;;20.94;44.04
9229;BME280;4649;42.644;23.284;2023-05-20T10:59:56;93097.72;;;20.69;43.72
9229;BME280;4649;42.644;23.284;2023-05-20T11:02:26;93197.47;;;21.45;44.81
9229;BME280;4649;42.644;23.284;2023-05-20T11:04:55;93123.09;;;21.06;43.62
9229;BME280;4649;42.644;23.284;2023-05-20T11:07:25;93098.47;;;20.77;44.85
9229;BME280;4649;42.644;23.284;2023-05-20T11:09:56;93056.81;;;20.11;44.32
9229;BME280;4649;42.644;23.284;2023-05-20T11:12:49;93254.72;;;21.47;46.88
9229;BME280;4649;42.644;23.284;2023-05-20T11:56:59;93098.16;;;19.54;51.69
9229;BME280;4649;42.644;23.284;2023-05-20T11:59:26;93063.91;;;19.17;50.88
9229;BME280;4649;42.644;23.284;2023-05-20T12:02:32;92945.91;;;18.30;51.78
9229;BME280;4649;42.644;23.284;2023-05-20T12:08:43;92969.22;;;18.66;51.79
9229;BME280;4649;42.644;23.284;2023-05-20T12:17:34;93037.88;;;18.46;53.10
9229;BME280;4649;42.644;23.284;2023-05-20T12:20:29;93053.25;;;18.56;53.46
9229;BME280;4649;42.644;23.284;2023-05-20T12:23:03;92984.09;;;18.28;54.24
9229;BME280;4649;42.644;23.284;2023-05-20T12:25:36;92985.56;;;18.36;54.30
9229;BME280;4649;42.644;23.284;2023-05-20T12:28:05;93034.25;;;18.51;53.49
9229;BME280;4649;42.644;23.284;2023-05-20T14:31:31;92900.09;;;17.60;57.39
9229;BME280;4649;42.644;23.284;2023-05-20T19:50:36;93122.81;;;16.83;68.91
9229;BME280;4649;42.644;23.284;2023-05-20T19:53:14;93183.78;;;17.37;68.03
9229;BME280;4649;42.644;23.284;2023-05-20T20:00:18;93176.66;;;17.21;70.16
9229;BME280;4649;42.644;23.284;2023-05-20T20:03:55;93177.59;;;17.24;71.61
9229;BME280;4649;42.644;23.284;2023-05-20T20:06:29;93069.19;;;16.47;73.12
9229;BME280;4649;42.644;23.284;2023-05-20T20:08:59;93043.34;;;16.35;73.37
9229;BME280;4649;42.644;23.284;2023-05-20T20:11:30;93056.38;;;16.29;75.18
9229;BME280;4649;42.644;23.284;2023-05-20T20:13:58;93109.31;;;16.52;76.38
9229;BME280;4649;42.644;23.284;2023-05-20T20:16:25;93032.97;;;15.95;77.47
9229;BME280;4649;42.644;23.284;2023-05-20T20:18:56;93024.28;;;15.71;83.48
9229;BME280;4649;42.644;23.284;2023-05-20T20:21:26;92980.59;;;15.32;83.71
9229;BME280;4649;42.644;23.284;2023-05-20T20:23:53;93046.59;;;15.69;87.46
9229;BME280;4649;42.644;23.284;2023-05-20T20:26:26;93000.03;;;15.10;88.14
9229;BME280;4649;42.644;23.284;2023-05-20T20:29:08;92946.84;;;14.60;90.01
9229;BME280;4649;42.644;23.284;2023-05-20T20:32:00;93003.09;;;14.75;92.35
9229;BME280;4649;42.644;23.284;2023-05-20T20:38:34;93130.69;;;15.71;97.07
9229;BME280;4649;42.644;23.284;2023-05-20T20:41:33;92971.19;;;14.39;96.40
9229;BME280;4649;42.644;23.284;2023-05-20T20:48:08;93087.16;;;15.34;96.48
9229;BME280;4649;42.644;23.284;2023-05-20T20:51:02;93135.88;;;15.43;97.85
9229;BME280;4649;42.644;23.284;2023-05-20T22:57:41;92848.66;;;11.92;100.00
9229;BME280;4649;42.644;23.284;2023-05-20T23:01:34;92924.13;;;12.22;100.00
9229;BME280;4649;42.644;23.284;2023-05-20T23:21:54;92868.78;;;12.02;100.00
